Flight Track Log - Related Links

Times and Time Zones

All times are in EDT time to prevent confusion due to time zone crossing. See the GGN7280 flight status page for this flight to view local times or setup timezone preferences in your user account.

Time Position Orientation Groundspeed Altitude Reporting Facility
EDT Latitude Longitude Course Direction KTS MPH feet Rate Location/Type
Wed 09:29:24 AM 43.6333 -79.6167 154° Southeast 160 184 1,800  Level Toronto Center
Wed 09:30:24 AM 43.5833 -79.5833 154° Southeast 180 207 3,000 1,300 Climbing Toronto Center
Wed 09:31:24 AM 43.5667 -79.5167 109° East 190 219 4,400 950 Climbing Toronto Center
Wed 09:32:24 AM 43.5500 -79.4500 109° East 220 253 4,900 300 Climbing Toronto Center
Wed 09:33:24 AM 43.5333 -79.3500 103° East 240 276 5,000 400 Climbing Toronto Center
Wed 09:34:24 AM 43.5167 -79.2667 105° East 240 276 5,700 1,300 Climbing Toronto Center
Wed 09:35:24 AM 43.5000 -79.2000 109° East 210 242 7,600 1,650 Climbing Toronto Center
Wed 09:36:24 AM 43.4833 -79.1333 109° East 210 242 9,000 1,400 Climbing Toronto Center
Wed 09:37:24 AM 43.4833 -79.0333 90° East 210 242 10,400 1,400 Climbing Toronto Center
Wed 09:38:24 AM 43.4667 -78.9500 105° East 220 253 11,800 1,400 Climbing Toronto Center
Wed 09:39:24 AM 43.4667 -78.8500 90° East 230 265 13,200 1,300 Climbing Toronto Center
Wed 09:40:24 AM 43.4500 -78.7833 109° East 230 265 14,400 1,150 Climbing Toronto Center
Wed 09:41:24 AM 43.4500 -78.6833 90° East 240 276 15,500 1,100 Climbing Toronto Center
Wed 09:42:24 AM 43.4333 -78.5833 103° East 250 288 16,600 987 Climbing Toronto Center
Wed 09:42:43 AM 43.4350 -78.5792 61° Northeast 243 280 16,800 835 Climbing Cleveland Center
Wed 09:43:43 AM 43.4228 -78.4797 100° East 248 285 17,700 950 Climbing Cleveland Center
Wed 09:44:43 AM 43.4125 -78.3828 98° East 258 297 18,700 950 Climbing Cleveland Center
Wed 09:45:43 AM 43.3981 -78.2806 101° East 258 297 19,600 850 Climbing Cleveland Center
Wed 09:46:43 AM 43.3856 -78.1808 100° East 263 303 20,400 750 Climbing Cleveland Center
Wed 09:47:43 AM 43.3731 -78.0758 99° East 268 308 21,100 600 Climbing Cleveland Center
Wed 09:48:43 AM 43.3603 -77.9706 99° East 274 315 21,600 500 Climbing Cleveland Center
Wed 09:49:43 AM 43.3453 -77.8628 101° East 279 321 22,100 450 Climbing Cleveland Center
Wed 09:50:43 AM 43.3300 -77.7522 101° East 284 327 22,500 400 Climbing Cleveland Center
Wed 09:51:43 AM 43.3147 -77.6414 101° East 294 338 22,900 250 Climbing Cleveland Center
Wed 09:52:43 AM 43.3036 -77.5250 97° East 294 338 23,000 50 Climbing Cleveland Center
Wed 09:53:43 AM 43.2878 -77.4089 101° East 299 344 23,000  Level Cleveland Center
Wed 09:54:43 AM 43.2722 -77.2956 101° East 299 344 23,000  Level Cleveland Center
Wed 09:55:43 AM 43.2567 -77.1853 101° East 299 344 23,000  Level Cleveland Center
Wed 09:57:24 AM 43.2167 -76.9833 105° East 300 345 23,000  Level Toronto Center
Wed 09:58:24 AM 43.2167 -76.8500 90° East 300 345 23,000  Level Toronto Center
Wed 09:59:24 AM 43.2000 -76.7500 103° East 300 345 23,000  Level Toronto Center
Wed 10:00:24 AM 43.1667 -76.6333 111° Southeast 300 345 23,000  Level Toronto Center
Wed 10:01:24 AM 43.1500 -76.5167 101° East 300 345 23,000  Level Toronto Center
Wed 10:02:24 AM 43.1333 -76.4167 103° East 290 334 23,000  Level Toronto Center
Wed 10:03:24 AM 43.1333 -76.3000 90° East 290 334 23,000  Level Toronto Center
Wed 10:03:39 AM 43.1369 -76.3186 285° West 297 342 23,000 -345 Level Boston Center
Wed 10:04:51 AM 43.1239 -76.2069 99° East 297 342 22,500 -500 Descending Boston Center
Wed 10:05:51 AM 43.0972 -76.0631 104° East 304 350 21,900 -700 Descending Boston Center
Wed 10:06:51 AM 43.0822 -75.9456 100° East 304 350 21,100 -950 Descending Boston Center
Wed 10:07:51 AM 43.0650 -75.8222 101° East 314 361 20,000 -1,050 Descending Boston Center
Wed 10:08:51 AM 43.0458 -75.6992 102° East 324 373 19,000 -1,100 Descending Boston Center
Wed 10:09:51 AM 43.0283 -75.5789 101° East 319 367 17,800 -1,529 Descending Boston Center
Wed 10:11:24 AM 42.9833 -75.3500 105° East 330 380 15,100 -1,500 Descending Toronto Center
Wed 10:11:51 AM 42.9928 -75.3414 34° Northeast 319 367 14,800 -1,655 Descending Boston Center
Wed 10:12:51 AM 42.9792 -75.2272 99° East 313 360 12,700 -1,600 Descending Boston Center
Wed 10:13:51 AM 42.9714 -75.1133 95° East 307 353 11,600 -800 Descending Boston Center
Wed 10:14:51 AM 42.9633 -75.0136 96° East 291 335 11,100 -250 Descending Boston Center
Wed 10:15:51 AM 42.9444 -74.9247 106° East 259 298 11,100  Level Boston Center
Wed 10:16:51 AM 42.9297 -74.8250 101° East 254 292 11,100  Level Boston Center
Wed 10:17:51 AM 42.9150 -74.7336 102° East 261 300 11,100 -65 Level Boston Center
Wed 10:18:24 AM 42.8997 -74.6622 106° East 276 318 11,000  Descending Boston Center
Wed 10:18:51 AM 42.8922 -74.6222 104° East 261 300 11,100 69 Climbing Boston Center
Wed 10:19:51 AM 42.8733 -74.5111 103° East 268 308 11,100 -500 Level Boston Center
Wed 10:20:51 AM 42.8583 -74.4200 103° East 268 308 10,100 -1,409 Descending Boston Center
Wed 10:22:03 AM 42.8314 -74.2861 105° East 278 320 8,000 -1,489 Descending Boston Center
Wed 10:23:04 AM 42.8164 -74.1864 102° East 269 310 6,800 -1,222 Descending Boston Center
Wed 10:23:51 AM 42.8050 -74.1156 102° East 258 297 5,800 -1,565 Descending Boston Center
Wed 10:24:59 AM 42.7831 -74.0300 109° East 211 243 3,800 -1,200 Descending Boston Center
Wed 10:25:51 AM 42.7567 -73.9839 128° Southeast 208 239 3,400 -595 Descending Boston Center
Wed 10:27:00 AM 42.7097 -73.9067 130° Southeast 226 260 2,600 7,800 Descending Boston Center
Wed 10:27:51 AM 42.6919 -73.8467 112° Southeast 208 239 19,000 8,865 Climbing Boston Center
Wed 10:28:51 AM 42.6614 -73.7839 123° Southeast 208 239 19,000  Level Boston Center
Wed 10:29:51 AM 42.6308 -73.7183 122° Southeast 208 239 19,000  Level Boston Center
Wed 10:30:51 AM 42.6064 -73.6672 123° Southeast 208 239 19,000  Level Boston Center
Wed 10:32:51 AM 42.6064 -73.6672 236° Southwest 208 239 19,000  Level Boston Center

Login

Don't have an account? Register now (free) for customized features, flight alerts, and more!